world map with KDA marked

KDA - Airport

This information may not be accurate or current and is not valid for navigation or flight planning. No warranty of fitness for any purpose is made or implied.

flag of Senegal

Donate via PayPal

Additional information is available on the NEW Great Circle Mapper

Location
City:  Kolda, Kolda, Senegal
Name:Saré Bidji Airport (Kolda North Airport)
ICAO / IATA:GOGK / KDA

Details
Type:Airport (Aerodrome, Airfield)
Latitude:12°53'55"N (12.898508)
Longitude:14°58'05"W (-14.968110)
Datum:WGS 1984
Elevation:33 ft (10 m)
Runways:1
Longest:4927 × 50 ft (1502 × 15 m)

Time
Timezone:UTC+0 (DST+2)
Local Time:

Weather
METAR:GOGK  041200Z 08004KT CAVOK 33/11 Q1012

Related Locations
Nearby:
Farthest:TOH: 12335 mi / 19852 km
Loh/Linua [Torres Airstrip], Linua Island, TOB, VU

Find:

   beyond  
but within

Other Information
Maps:
Sources:

  


 


Great Circle Mapper   Great Circle Mapper
Great Circle Mapper FAQ   Great Circle Mapper FAQ
  Karl's Home Page
KLS˛   KLS˛ Home
   GC on Facebook
Airlines of the World   Airlines of the World
Donate via PayPal


Copyright © 2004-2019, Karl L. Swartz. All rights reserved.
All trademarks mentioned herein belong to their respective owners.

Please see credits for attribution and copyright information.

Karl Swartz <karl@kls2.com>
  Powered by FreeBSD
Valid HTML 4.01!
Labeled with ICRA
hCard Microformat
Geo Microformat